Alexander Maersk — OZRC2 — position and weather

sailwx.info

Track history (hours):
 
Tides and Currents Weather Stations Pressure Air Temp Water Temp Dewpoint Dewpoint Depression Visibility Wind Speed Wind Dir Waves Ship Positions

Alexander Maersk

Last reported at 2017-Oct-07 13:07 UTC. Time now 2017-Oct-23 02:53 UTC.
Position N 35°39' E 014°37'.
Warning: this ship's position is 15 days out of date.

Length 155 m; draft 8.9 m.

Type: Cargo ship. MMSI: 219470000.

Date/timePositionNaut miles runAvg speedWind from/ knotsBaromVisibWave heightAir tempDewpointWater temp
2017-Oct-07 13:07N 35°39' E 014°37'1 8.1
2017-Oct-07 13:00N 35°40' E 014°37'5 8.3
2017-Oct-07 12:21N 35°45' E 014°36'5 7.9
2017-Oct-07 11:42N 35°49' E 014°33'0 0.0
2017-Oct-06 19:49N 35°49' E 014°33'0 0.0
2017-Oct-06 19:16N 35°49' E 014°33'0 0.0
2017-Oct-06 18:55N 35°49' E 014°33'0 0.0
2017-Oct-06 18:25N 35°49' E 014°33'0 0.0
2017-Oct-06 17:52N 35°49' E 014°33'0 0.0
2017-Oct-05 20:18N 35°49' E 014°33'0 0.9
2017-Oct-05 19:53N 35°49' E 014°33'2 5.2
2017-Oct-05 19:29N 35°48' E 014°35'1 2.3
2017-Oct-05 19:00N 35°48' E 014°36'2 4.3
2017-Oct-05 18:30N 35°48' E 014°39'4 8.6
2017-Oct-05 18:00N 35°50' E 014°43'1 0.3
2017-Oct-05 13:40N 35°51' E 014°44'0 0.0
2017-Oct-05 13:16N 35°51' E 014°44'0 0.0
2017-Oct-05 12:46N 35°51' E 014°44'0 0.0
2017-Oct-05 12:28N 35°51' E 014°44'0 0.0
2017-Oct-05 11:43N 35°51' E 014°44'0 0.0
2017-Oct-05 11:25N 35°51' E 014°44'0 0.0
2017-Oct-05 07:07N 35°51' E 014°44'0 0.0
2017-Oct-05 05:43N 35°51' E 014°44'0 0.0
2017-Oct-05 05:19N 35°51' E 014°44'0 0.0
2017-Oct-05 04:58N 35°51' E 014°44'0 0.0
2017-Oct-05 04:16N 35°51' E 014°44'0 0.1
2017-Oct-05 03:55N 35°51' E 014°44'0 0.0
2017-Oct-04 18:01N 35°51' E 014°44'0 0.1
2017-Oct-04 17:55N 35°51' E 014°44'0 0.0
2017-Oct-04 17:25N 35°51' E 014°44'0 0.1
2017-Oct-04 16:19N 35°52' E 014°44'0 0.0
2017-Oct-04 08:52N 35°51' E 014°44'0 0.0
2017-Oct-04 00:35N 35°51' E 014°44'0 0.1
2017-Oct-04 00:23N 35°51' E 014°44'0 0.1
2017-Oct-04 00:00N 35°51' E 014°44'1 1.0
2017-Oct-03 23:28N 35°52' E 014°43'16 6.5
2017-Oct-03 20:57N 35°42' E 014°27'3 7.0
2017-Oct-03 20:30N 35°41' E 014°23'3 6.9
2017-Oct-03 20:00N 35°40' E 014°20'3 6.9
2017-Oct-03 19:30N 35°38' E 014°16'5 6.8
2017-Oct-03 18:46N 35°36' E 014°10'2 6.7
2017-Oct-03 18:27N 35°35' E 014°08'  
Track history (hours):
 
Tides and Currents Weather Stations Pressure Air Temp Water Temp Dewpoint Dewpoint Depression Visibility Wind Speed Wind Dir Waves Ship Positions

Alexander Maersk

Last reported at 2017-Oct-07 13:07 UTC. Time now 2017-Oct-23 02:53 UTC.
Position N 35°39' E 014°37'.
Warning: this ship's position is 15 days out of date.

Length 155 m; draft 8.9 m.

Type: Cargo ship. MMSI: 219470000.

Date/timePositionNaut miles runAvg speedWind from/ knotsBaromVisibWave heightAir tempDewpointWater temp
2017-Oct-07 13:07N 35°39' E 014°37'1 8.1
2017-Oct-07 13:00N 35°40' E 014°37'5 8.3
2017-Oct-07 12:21N 35°45' E 014°36'5 7.9
2017-Oct-07 11:42N 35°49' E 014°33'0 0.0
2017-Oct-06 19:49N 35°49' E 014°33'0 0.0
2017-Oct-06 19:16N 35°49' E 014°33'0 0.0
2017-Oct-06 18:55N 35°49' E 014°33'0 0.0
2017-Oct-06 18:25N 35°49' E 014°33'0 0.0
2017-Oct-06 17:52N 35°49' E 014°33'0 0.0
2017-Oct-05 20:18N 35°49' E 014°33'0 0.9
2017-Oct-05 19:53N 35°49' E 014°33'2 5.2
2017-Oct-05 19:29N 35°48' E 014°35'1 2.3
2017-Oct-05 19:00N 35°48' E 014°36'2 4.3
2017-Oct-05 18:30N 35°48' E 014°39'4 8.6
2017-Oct-05 18:00N 35°50' E 014°43'1 0.3
2017-Oct-05 13:40N 35°51' E 014°44'0 0.0
2017-Oct-05 13:16N 35°51' E 014°44'0 0.0
2017-Oct-05 12:46N 35°51' E 014°44'0 0.0
2017-Oct-05 12:28N 35°51' E 014°44'0 0.0
2017-Oct-05 11:43N 35°51' E 014°44'0 0.0
2017-Oct-05 11:25N 35°51' E 014°44'0 0.0
2017-Oct-05 07:07N 35°51' E 014°44'0 0.0
2017-Oct-05 05:43N 35°51' E 014°44'0 0.0
2017-Oct-05 05:19N 35°51' E 014°44'0 0.0
2017-Oct-05 04:58N 35°51' E 014°44'0 0.0
2017-Oct-05 04:16N 35°51' E 014°44'0 0.1
2017-Oct-05 03:55N 35°51' E 014°44'0 0.0
2017-Oct-04 18:01N 35°51' E 014°44'0 0.1
2017-Oct-04 17:55N 35°51' E 014°44'0 0.0
2017-Oct-04 17:25N 35°51' E 014°44'0 0.1
2017-Oct-04 16:19N 35°52' E 014°44'0 0.0
2017-Oct-04 08:52N 35°51' E 014°44'0 0.0
2017-Oct-04 00:35N 35°51' E 014°44'0 0.1
2017-Oct-04 00:23N 35°51' E 014°44'0 0.1
2017-Oct-04 00:00N 35°51' E 014°44'1 1.0
2017-Oct-03 23:28N 35°52' E 014°43'16 6.5
2017-Oct-03 20:57N 35°42' E 014°27'3 7.0
2017-Oct-03 20:30N 35°41' E 014°23'3 6.9
2017-Oct-03 20:00N 35°40' E 014°20'3 6.9
2017-Oct-03 19:30N 35°38' E 014°16'5 6.8
2017-Oct-03 18:46N 35°36' E 014°10'2 6.7
2017-Oct-03 18:27N 35°35' E 014°08'  

Dump ship's entire track history